Time;durP1;ratioP1;P1;durP2;ratioP2;P2;SDS_P1;SDS_P2;PMS_P1;PMS_P2;Temp;Humidity;BMP_temperature;BMP_pressure;BME280_temperature;BME280_humidity;BME280_pressure;Samples;Min_cycle;Max_cycle;Signal;HPM_P1;HPM_P2
2022/09/02 00:02:10;;;;;;;8.50;6.00;;;;;;;;;;1724770;82;21027;-72
2022/09/02 00:04:37;;;;;;;12.73;6.30;;;;;;;;;;1725384;83;21115;-72
2022/09/02 00:07:03;;;;;;;9.80;5.85;;;;;;;;;;1726942;81;21108;-72
2022/09/02 00:09:29;;;;;;;9.43;5.75;;;;;;;;;;1727187;83;21042;-71
2022/09/02 00:11:55;;;;;;;11.03;6.15;;;;;;;;;;1724540;83;21050;-71
2022/09/02 00:14:23;;;;;;;9.98;5.45;;;;;;;;;;1723136;83;21057;-71
2022/09/02 00:16:52;;;;;;;9.65;5.50;;;;;;;;;;1724824;83;21019;-71
2022/09/02 00:19:19;;;;;;;9.90;6.05;;;;;;;;;;1718580;83;21116;-71
2022/09/02 00:21:45;;;;;;;8.90;6.03;;;;;;;;;;1726113;81;21556;-71
2022/09/02 00:24:11;;;;;;;11.93;6.03;;;;;;;;;;1724828;83;21060;-71
2022/09/02 00:26:37;;;;;;;10.55;6.08;;;;;;;;;;1724911;82;21077;-71
2022/09/02 00:29:04;;;;;;;14.65;6.62;;;;;;;;;;1724051;83;21233;-72
2022/09/02 00:31:32;;;;;;;9.60;5.87;;;;;;;;;;1725930;82;21021;-71
2022/09/02 00:33:58;;;;;;;9.53;5.95;;;;;;;;;;1724188;82;21070;-72
2022/09/02 00:36:25;;;;;;;9.15;5.75;;;;;;;;;;1726881;81;21039;-73
2022/09/02 00:38:51;;;;;;;10.35;6.50;;;;;;;;;;1722043;83;21057;-72
2022/09/02 00:41:18;;;;;;;10.00;6.25;;;;;;;;;;1717914;83;21510;-72
2022/09/02 00:43:46;;;;;;;9.28;5.67;;;;;;;;;;1725070;81;21012;-72
2022/09/02 00:46:13;;;;;;;10.58;6.00;;;;;;;;;;1725225;83;21678;-72
2022/09/02 00:48:41;;;;;;;13.30;6.08;;;;;;;;;;1724937;83;21091;-71
2022/09/02 00:51:07;;;;;;;9.60;6.60;;;;;;;;;;1722893;83;21536;-72
2022/09/02 00:53:34;;;;;;;9.90;6.17;;;;;;;;;;1720866;83;21044;-72
2022/09/02 00:56:01;;;;;;;9.15;5.75;;;;;;;;;;1725383;83;21020;-71
2022/09/02 00:58:28;;;;;;;9.55;5.75;;;;;;;;;;1724670;81;21041;-71
2022/09/02 01:03:43;;;;;;;9.25;5.85;;;;;;;;;;1720314;79;75911;-71
2022/09/02 01:06:10;;;;;;;9.50;6.20;;;;;;;;;;1737240;81;22370;-71
2022/09/02 01:08:38;;;;;;;10.13;5.92;;;;;;;;;;1735171;81;21111;-72
2022/09/02 01:11:05;;;;;;;9.48;6.10;;;;;;;;;;1735992;81;21529;-72
2022/09/02 01:13:33;;;;;;;11.22;6.70;;;;;;;;;;1729007;81;21039;-73
2022/09/02 01:16:13;;;;;;;12.30;7.15;;;;;;;;;;1734837;81;22369;-72
2022/09/02 01:18:40;;;;;;;12.85;7.20;;;;;;;;;;1734792;82;21590;-73
2022/09/02 01:21:06;;;;;;;23.22;8.45;;;;;;;;;;1727449;81;21004;-72
2022/09/02 01:23:33;;;;;;;14.85;7.72;;;;;;;;;;1722019;81;21123;-72
2022/09/02 01:26:01;;;;;;;16.37;7.85;;;;;;;;;;1735319;81;21095;-72
2022/09/02 01:28:27;;;;;;;15.50;8.73;;;;;;;;;;1702904;84;21060;-72
2022/09/02 01:30:54;;;;;;;13.98;8.48;;;;;;;;;;1735478;81;21071;-73
2022/09/02 01:33:21;;;;;;;16.32;8.73;;;;;;;;;;1732404;81;21056;-72
2022/09/02 01:35:48;;;;;;;15.50;8.93;;;;;;;;;;1716977;81;21182;-73
2022/09/02 01:38:14;;;;;;;14.80;8.13;;;;;;;;;;1719168;81;21064;-73
2022/09/02 01:40:42;;;;;;;15.05;8.73;;;;;;;;;;1735605;81;21562;-73
2022/09/02 01:43:09;;;;;;;14.85;8.35;;;;;;;;;;1736308;81;21091;-73
2022/09/02 01:45:36;;;;;;;17.00;9.50;;;;;;;;;;1735799;81;21019;-72
2022/09/02 01:48:02;;;;;;;13.43;8.53;;;;;;;;;;1734934;81;21613;-73
2022/09/02 01:50:30;;;;;;;14.40;8.50;;;;;;;;;;1735142;81;21044;-72
2022/09/02 01:53:00;;;;;;;15.45;9.33;;;;;;;;;;1732790;81;21083;-72
2022/09/02 01:55:26;;;;;;;12.60;8.05;;;;;;;;;;1735157;81;21024;-73
2022/09/02 01:57:53;;;;;;;15.10;8.73;;;;;;;;;;1731664;81;21542;-72
2022/09/02 02:00:19;;;;;;;15.23;9.15;;;;;;;;;;1732522;81;21077;-72
2022/09/02 02:02:46;;;;;;;14.87;9.65;;;;;;;;;;1735207;80;21107;-73
2022/09/02 02:05:12;;;;;;;16.05;9.08;;;;;;;;;;1708589;82;21071;-72
2022/09/02 02:07:41;;;;;;;16.77;9.33;;;;;;;;;;1709791;82;21048;-73
2022/09/02 02:10:09;;;;;;;18.12;10.15;;;;;;;;;;1707541;82;21590;-72
2022/09/02 02:12:37;;;;;;;13.93;8.35;;;;;;;;;;1710888;82;21016;-72
2022/09/02 02:15:05;;;;;;;15.43;9.63;;;;;;;;;;1676014;84;21519;-73
2022/09/02 02:17:33;;;;;;;14.40;9.35;;;;;;;;;;1715751;82;21110;-73
2022/09/02 02:20:00;;;;;;;13.93;8.90;;;;;;;;;;1689665;82;21099;-73
2022/09/02 02:22:26;;;;;;;18.00;9.28;;;;;;;;;;1712608;82;22507;-72
2022/09/02 02:24:53;;;;;;;15.23;9.78;;;;;;;;;;1716380;82;21070;-72
2022/09/02 02:27:19;;;;;;;17.62;9.63;;;;;;;;;;1676854;84;21063;-72
2022/09/02 02:29:46;;;;;;;14.78;9.55;;;;;;;;;;1712906;82;21645;-73
2022/09/02 02:32:13;;;;;;;14.13;9.05;;;;;;;;;;1708331;82;21134;-71
2022/09/02 02:34:39;;;;;;;19.30;9.40;;;;;;;;;;1679828;84;21032;-72
2022/09/02 02:37:06;;;;;;;18.05;9.55;;;;;;;;;;1707160;82;21515;-72
2022/09/02 02:39:32;;;;;;;15.83;9.65;;;;;;;;;;1706539;82;21087;-73
2022/09/02 02:41:59;;;;;;;19.10;9.88;;;;;;;;;;1675317;84;21100;-73
2022/09/02 02:44:25;;;;;;;19.27;9.28;;;;;;;;;;1709063;82;21071;-72
2022/09/02 02:46:52;;;;;;;17.23;9.55;;;;;;;;;;1707690;82;21593;-72
2022/09/02 02:49:18;;;;;;;15.25;8.83;;;;;;;;;;1679056;83;21067;-72
2022/09/02 02:51:44;;;;;;;16.93;9.28;;;;;;;;;;1709587;82;21095;-72
2022/09/02 02:54:13;;;;;;;15.93;10.55;;;;;;;;;;1709641;82;21593;-71
2022/09/02 02:56:39;;;;;;;15.90;9.78;;;;;;;;;;1708368;82;21059;-73
2022/09/02 02:59:05;;;;;;;14.18;9.53;;;;;;;;;;1716785;82;21623;-72
2022/09/02 03:01:32;;;;;;;15.88;9.95;;;;;;;;;;1710496;82;21083;-74
2022/09/02 03:03:59;;;;;;;14.53;9.15;;;;;;;;;;1708478;82;21598;-72
2022/09/02 03:06:27;;;;;;;14.60;8.75;;;;;;;;;;1727884;81;21073;-72
2022/09/02 03:08:55;;;;;;;13.48;8.78;;;;;;;;;;1739842;81;21449;-73
2022/09/02 03:11:22;;;;;;;15.10;8.83;;;;;;;;;;1737181;81;21050;-72
2022/09/02 03:13:49;;;;;;;16.62;9.15;;;;;;;;;;1737202;81;21002;-73
2022/09/02 03:16:18;;;;;;;16.23;9.35;;;;;;;;;;1704037;82;21002;-73
2022/09/02 03:18:46;;;;;;;16.23;9.70;;;;;;;;;;1723605;81;21041;-72
2022/09/02 03:21:13;;;;;;;16.12;9.30;;;;;;;;;;1737476;81;21018;-72
2022/09/02 03:23:39;;;;;;;14.78;9.40;;;;;;;;;;1736715;81;21169;-72
2022/09/02 03:26:14;;;;;;;16.62;9.58;;;;;;;;;;1738776;81;21026;-72
2022/09/02 03:28:41;;;;;;;17.73;10.58;;;;;;;;;;1743965;81;21033;-72
2022/09/02 03:31:10;;;;;;;15.58;9.88;;;;;;;;;;1731279;81;21280;-73
2022/09/02 03:33:36;;;;;;;16.25;10.10;;;;;;;;;;1733583;81;21026;-72
2022/09/02 03:36:02;;;;;;;16.73;9.18;;;;;;;;;;1738342;81;21066;-73
2022/09/02 03:38:29;;;;;;;16.15;9.40;;;;;;;;;;1738412;81;21022;-73
2022/09/02 03:40:56;;;;;;;14.53;8.70;;;;;;;;;;1739677;81;21518;-72
2022/09/02 03:43:23;;;;;;;16.20;8.68;;;;;;;;;;1740786;81;21060;-72
2022/09/02 03:45:49;;;;;;;15.45;9.28;;;;;;;;;;1730651;81;22152;-72
2022/09/02 03:48:16;;;;;;;16.57;9.68;;;;;;;;;;1737524;81;20970;-72
2022/09/02 03:50:43;;;;;;;20.08;9.75;;;;;;;;;;1733104;81;21089;-72
2022/09/02 03:53:11;;;;;;;20.35;9.93;;;;;;;;;;1700514;83;21090;-72
2022/09/02 03:55:38;;;;;;;37.55;11.00;;;;;;;;;;1701485;83;21026;-72
2022/09/02 03:58:05;;;;;;;16.40;9.15;;;;;;;;;;1715308;82;21043;-72
2022/09/02 04:00:32;;;;;;;18.55;9.40;;;;;;;;;;1693580;82;21515;-72
2022/09/02 04:03:02;;;;;;;18.85;9.25;;;;;;;;;;1724607;82;21031;-71
2022/09/02 04:05:29;;;;;;;19.20;10.15;;;;;;;;;;1716439;82;21053;-72
2022/09/02 04:07:56;;;;;;;17.30;10.13;;;;;;;;;;1705748;82;21019;-71
2022/09/02 04:10:23;;;;;;;34.75;11.38;;;;;;;;;;1715656;83;21152;-72
2022/09/02 04:12:50;;;;;;;24.90;10.70;;;;;;;;;;1719870;82;20948;-72
2022/09/02 04:15:17;;;;;;;16.52;10.65;;;;;;;;;;1721069;82;21023;-71
2022/09/02 04:17:45;;;;;;;21.42;10.28;;;;;;;;;;1726050;82;21074;-71
2022/09/02 04:20:13;;;;;;;26.02;10.75;;;;;;;;;;1720602;82;21046;-71
2022/09/02 04:22:39;;;;;;;33.78;11.70;;;;;;;;;;1718548;82;20979;-71
2022/09/02 04:25:07;;;;;;;25.92;11.83;;;;;;;;;;1722001;82;21332;-71
2022/09/02 04:27:33;;;;;;;22.22;11.80;;;;;;;;;;1722641;82;22425;-72
2022/09/02 04:30:00;;;;;;;21.73;11.28;;;;;;;;;;1722912;82;21043;-71
2022/09/02 04:32:26;;;;;;;25.37;11.50;;;;;;;;;;1724495;82;21042;-71
2022/09/02 04:34:53;;;;;;;28.90;13.75;;;;;;;;;;1726382;82;21036;-70
2022/09/02 04:37:19;;;;;;;31.23;13.58;;;;;;;;;;1728016;82;21066;-70
2022/09/02 04:39:45;;;;;;;51.92;15.93;;;;;;;;;;1721633;82;20991;-71
2022/09/02 04:42:12;;;;;;;35.65;14.75;;;;;;;;;;1720535;82;21027;-70
2022/09/02 04:44:39;;;;;;;30.00;16.20;;;;;;;;;;1725344;82;22116;-70
2022/09/02 04:47:06;;;;;;;35.75;18.65;;;;;;;;;;1720779;82;20975;-71
2022/09/02 04:49:33;;;;;;;37.20;20.60;;;;;;;;;;1728224;82;21527;-71
2022/09/02 04:52:00;;;;;;;40.05;22.10;;;;;;;;;;1722459;82;21078;-71
2022/09/02 04:54:27;;;;;;;42.98;22.85;;;;;;;;;;1728470;82;21019;-70
2022/09/02 04:56:55;;;;;;;40.08;22.00;;;;;;;;;;1720897;82;21014;-71
2022/09/02 04:59:22;;;;;;;39.60;22.32;;;;;;;;;;1724730;82;21602;-70
2022/09/02 05:04:01;;;;;;;46.00;23.27;;;;;;;;;;1784709;79;23377;-69
2022/09/02 05:06:29;;;;;;;42.60;25.40;;;;;;;;;;1750519;81;21566;-70
2022/09/02 05:08:59;;;;;;;48.85;26.73;;;;;;;;;;1755691;81;21095;-71
2022/09/02 05:11:27;;;;;;;45.83;25.92;;;;;;;;;;1752920;81;21611;-70
2022/09/02 05:13:55;;;;;;;55.35;28.42;;;;;;;;;;1755498;81;21028;-70
2022/09/02 05:16:23;;;;;;;62.43;33.65;;;;;;;;;;1746566;81;21075;-71
2022/09/02 05:18:49;;;;;;;58.83;32.33;;;;;;;;;;1742255;81;21025;-70
2022/09/02 05:21:16;;;;;;;72.27;38.08;;;;;;;;;;1752209;81;21043;-71
2022/09/02 05:23:42;;;;;;;66.92;37.00;;;;;;;;;;1755893;81;21064;-70
2022/09/02 05:26:10;;;;;;;69.25;35.38;;;;;;;;;;1755159;81;21032;-70
2022/09/02 05:28:37;;;;;;;80.20;41.33;;;;;;;;;;1755198;81;21084;-70
2022/09/02 05:31:06;;;;;;;72.03;37.78;;;;;;;;;;1749829;81;21069;-71
2022/09/02 05:33:39;;;;;;;78.92;41.25;;;;;;;;;;1753350;81;21013;-70
2022/09/02 05:36:06;;;;;;;72.97;39.53;;;;;;;;;;1748617;81;21044;-71
2022/09/02 05:38:33;;;;;;;82.37;43.10;;;;;;;;;;1757868;81;21071;-70
2022/09/02 05:41:06;;;;;;;76.87;41.20;;;;;;;;;;1757018;81;21036;-69
2022/09/02 05:43:33;;;;;;;;;;;;;;;;;;1750671;81;21493;-72
2022/09/02 05:46:01;;;;;;;80.53;42.43;;;;;;;;;;1750327;81;20456;-70
2022/09/02 05:51:13;;;;;;;75.92;42.23;;;;;;;;;;1755186;80;21028;-71
2022/09/02 05:53:40;;;;;;;77.37;40.67;;;;;;;;;;1750845;81;21744;-72
2022/09/02 05:56:07;;;;;;;75.28;39.83;;;;;;;;;;1754451;81;21044;-67
2022/09/02 05:58:33;;;;;;;76.40;38.60;;;;;;;;;;1740789;81;21096;-66
2022/09/02 06:01:02;;;;;;;68.05;36.75;;;;;;;;;;1755199;81;21090;-66
2022/09/02 06:03:28;;;;;;;87.15;43.68;;;;;;;;;;1725433;83;21112;-66
2022/09/02 06:05:56;;;;;;;103.10;53.10;;;;;;;;;;1727642;82;21075;-66
2022/09/02 06:08:23;;;;;;;84.67;44.38;;;;;;;;;;1725146;83;21510;-67
2022/09/02 06:10:49;;;;;;;63.73;35.08;;;;;;;;;;1725283;83;21049;-66
2022/09/02 06:13:21;;;;;;;81.63;40.80;;;;;;;;;;1722742;82;21065;-66
2022/09/02 06:15:48;;;;;;;88.72;44.63;;;;;;;;;;1713679;82;21079;-67
2022/09/02 06:18:16;;;;;;;79.40;44.88;;;;;;;;;;1722837;82;21079;-66
2022/09/02 06:20:44;;;;;;;87.10;46.13;;;;;;;;;;1724710;83;21060;-66
2022/09/02 06:23:11;;;;;;;73.70;39.90;;;;;;;;;;1722165;83;21045;-67
2022/09/02 06:25:39;;;;;;;67.62;39.92;;;;;;;;;;1714655;82;21032;-67
2022/09/02 06:28:07;;;;;;;89.67;51.33;;;;;;;;;;1722727;82;21048;-66
2022/09/02 06:30:37;;;;;;;131.95;69.22;;;;;;;;;;1716307;83;21076;-68
2022/09/02 06:33:04;;;;;;;101.70;53.28;;;;;;;;;;1719220;82;21052;-68
2022/09/02 06:35:33;;;;;;;111.20;61.33;;;;;;;;;;1719840;83;20941;-67
2022/09/02 06:38:00;;;;;;;155.25;82.72;;;;;;;;;;1722488;83;21050;-67
2022/09/02 06:40:26;;;;;;;176.42;91.97;;;;;;;;;;1718215;82;21060;-67
2022/09/02 06:42:53;;;;;;;163.32;90.00;;;;;;;;;;1699572;83;21602;-67
2022/09/02 06:45:27;;;;;;;197.32;102.90;;;;;;;;;;1714964;83;21062;-66
2022/09/02 06:47:54;;;;;;;216.05;116.12;;;;;;;;;;1717840;82;21107;-68
2022/09/02 06:50:21;;;;;;;213.72;114.40;;;;;;;;;;1723180;83;21027;-67
2022/09/02 06:52:49;;;;;;;197.45;101.92;;;;;;;;;;1709433;83;21587;-68
2022/09/02 06:55:16;;;;;;;164.88;87.25;;;;;;;;;;1723525;82;21037;-68
2022/09/02 06:57:43;;;;;;;243.12;123.97;;;;;;;;;;1684541;85;21568;-67
2022/09/02 07:00:12;;;;;;;245.78;126.25;;;;;;;;;;1686642;83;21062;-67
2022/09/02 07:02:39;;;;;;;225.35;119.62;;;;;;;;;;1682768;84;21672;-67
2022/09/02 07:05:09;;;;;;;194.80;101.02;;;;;;;;;;1673288;84;21038;-67
2022/09/02 07:07:35;;;;;;;161.73;83.85;;;;;;;;;;1701191;82;21521;-67
2022/09/02 07:10:04;;;;;;;91.92;52.08;;;;;;;;;;1710584;83;22228;-69
2022/09/02 07:12:32;;;;;;;92.97;48.87;;;;;;;;;;1697160;82;20997;-68
2022/09/02 07:15:01;;;;;;;75.52;43.45;;;;;;;;;;1687960;84;21064;-68
2022/09/02 07:17:29;;;;;;;33.67;19.82;;;;;;;;;;1703969;83;21038;-69
2022/09/02 07:19:59;;;;;;;26.68;17.02;;;;;;;;;;1702402;83;21088;-67
2022/09/02 07:22:26;;;;;;;26.20;14.60;;;;;;;;;;1700148;84;21004;-68
2022/09/02 07:24:53;;;;;;;12.07;7.33;;;;;;;;;;1711732;83;21070;-68
2022/09/02 07:27:20;;;;;;;14.75;6.87;;;;;;;;;;1701514;83;21005;-69
2022/09/02 07:29:53;;;;;;;9.10;4.87;;;;;;;;;;1709249;83;21634;-69
2022/09/02 07:32:15;;;;;;;10.38;5.95;;;;;;;;;;1710584;83;21060;-68
2022/09/02 07:34:42;;;;;;;8.40;5.30;;;;;;;;;;1690246;83;20981;-66
2022/09/02 07:37:09;;;;;;;7.80;5.00;;;;;;;;;;1680053;84;21021;-68
2022/09/02 07:39:36;;;;;;;8.50;4.45;;;;;;;;;;1698558;83;21053;-68
2022/09/02 07:42:04;;;;;;;7.60;4.92;;;;;;;;;;1699188;83;21596;-69
2022/09/02 07:44:31;;;;;;;8.80;5.25;;;;;;;;;;1700222;83;21026;-69
2022/09/02 07:46:58;;;;;;;8.80;4.53;;;;;;;;;;1700711;83;21053;-68
2022/09/02 07:49:26;;;;;;;8.13;5.00;;;;;;;;;;1704231;84;21065;-68
2022/09/02 07:51:54;;;;;;;9.10;5.10;;;;;;;;;;1689049;84;21050;-69
2022/09/02 07:54:21;;;;;;;8.40;5.70;;;;;;;;;;1696871;82;21103;-77
2022/09/02 07:56:48;;;;;;;10.65;5.90;;;;;;;;;;1709127;83;21005;-75
2022/09/02 07:59:16;;;;;;;6.83;4.80;;;;;;;;;;1710896;82;21068;-74
2022/09/02 08:01:43;;;;;;;8.83;4.60;;;;;;;;;;1703984;83;21650;-75
2022/09/02 08:04:09;;;;;;;6.40;3.77;;;;;;;;;;1710428;82;21124;-74
2022/09/02 08:06:36;;;;;;;9.48;5.55;;;;;;;;;;1709749;82;21086;-66
2022/09/02 08:09:03;;;;;;;5.70;3.37;;;;;;;;;;1702602;84;22085;-67
2022/09/02 08:11:31;;;;;;;6.25;3.60;;;;;;;;;;1706647;84;21037;-65
2022/09/02 08:13:58;;;;;;;5.22;3.50;;;;;;;;;;1660862;85;21106;-67
2022/09/02 08:16:46;;;;;;;6.58;3.83;;;;;;;;;;1649930;85;21157;-65
2022/09/02 08:19:12;;;;;;;4.42;2.55;;;;;;;;;;1651053;86;21093;-68
2022/09/02 08:21:41;;;;;;;3.27;2.20;;;;;;;;;;1656676;85;21594;-68
2022/09/02 08:24:08;;;;;;;5.03;2.50;;;;;;;;;;1653809;85;21095;-67
2022/09/02 08:26:37;;;;;;;5.60;2.20;;;;;;;;;;1657959;86;21041;-67
2022/09/02 08:29:04;;;;;;;3.90;1.90;;;;;;;;;;1654125;85;21072;-67
2022/09/02 08:31:30;;;;;;;6.97;1.75;;;;;;;;;;1676760;85;22242;-66
2022/09/02 08:33:57;;;;;;;4.97;1.95;;;;;;;;;;1679072;84;21052;-67
2022/09/02 08:36:23;;;;;;;3.85;1.87;;;;;;;;;;1663554;84;21117;-66
2022/09/02 08:38:50;;;;;;;3.60;1.90;;;;;;;;;;1675466;84;21115;-66
2022/09/02 08:41:19;;;;;;;2.77;1.80;;;;;;;;;;1668593;84;21120;-65
2022/09/02 08:43:45;;;;;;;6.15;2.00;;;;;;;;;;1678918;85;21014;-66
2022/09/02 08:46:13;;;;;;;3.62;2.05;;;;;;;;;;1682474;84;21532;-67
2022/09/02 08:48:41;;;;;;;3.92;1.85;;;;;;;;;;1650359;85;21122;-68
2022/09/02 08:51:09;;;;;;;5.08;2.22;;;;;;;;;;1656363;85;21021;-67
2022/09/02 08:53:37;;;;;;;2.80;1.85;;;;;;;;;;1683379;84;21037;-68
2022/09/02 08:56:04;;;;;;;3.10;1.95;;;;;;;;;;1682438;84;21080;-69
2022/09/02 08:58:41;;;;;;;2.25;1.57;;;;;;;;;;1684288;84;21057;-69
2022/09/02 09:01:16;;;;;;;2.60;2.00;;;;;;;;;;1652647;84;21087;-69
2022/09/02 09:04:00;;;;;;;3.30;1.98;;;;;;;;;;1644134;86;21075;-67
2022/09/02 09:06:37;;;;;;;4.47;2.70;;;;;;;;;;1638321;86;21045;-68
2022/09/02 09:09:05;;;;;;;4.72;2.70;;;;;;;;;;1661452;85;21549;-68
2022/09/02 09:11:37;;;;;;;5.20;2.37;;;;;;;;;;1652575;85;21128;-67
2022/09/02 09:14:05;;;;;;;5.22;2.45;;;;;;;;;;1626892;86;21564;-67
2022/09/02 09:16:39;;;;;;;3.77;2.47;;;;;;;;;;1613089;86;21096;-67
2022/09/02 09:19:12;;;;;;;4.58;2.87;;;;;;;;;;1612700;87;21039;-67
2022/09/02 09:21:40;;;;;;;7.05;3.42;;;;;;;;;;1604146;88;21527;-68
2022/09/02 09:24:12;;;;;;;5.20;3.25;;;;;;;;;;1597820;88;21065;-68
2022/09/02 09:26:39;;;;;;;7.70;3.47;;;;;;;;;;1609373;87;21571;-69
2022/09/02 09:29:05;;;;;;;7.10;3.67;;;;;;;;;;1589468;89;21222;-67
2022/09/02 09:31:34;;;;;;;7.05;4.30;;;;;;;;;;1637614;86;21009;-67
2022/09/02 09:34:02;;;;;;;9.63;5.22;;;;;;;;;;1647942;86;21040;-67
2022/09/02 09:36:39;;;;;;;6.97;4.10;;;;;;;;;;1645754;86;22410;-67
2022/09/02 09:39:20;;;;;;;5.62;3.90;;;;;;;;;;1649723;86;21080;-68
2022/09/02 09:41:46;;;;;;;8.80;4.40;;;;;;;;;;1639761;87;21501;-66
2022/09/02 09:44:31;;;;;;;10.32;3.60;;;;;;;;;;1638430;86;21116;-68
2022/09/02 09:47:01;;;;;;;14.03;4.40;;;;;;;;;;1639160;86;21105;-68
2022/09/02 09:49:27;;;;;;;7.75;4.05;;;;;;;;;;1648215;86;21129;-68
2022/09/02 09:51:53;;;;;;;7.65;4.58;;;;;;;;;;1650443;86;21567;-67
2022/09/02 09:54:19;;;;;;;7.45;4.25;;;;;;;;;;1662517;86;21059;-68
2022/09/02 09:56:45;;;;;;;10.88;4.90;;;;;;;;;;1639607;86;21044;-68
2022/09/02 09:59:13;;;;;;;6.90;4.05;;;;;;;;;;1646146;86;21548;-69
2022/09/02 10:01:40;;;;;;;5.50;3.58;;;;;;;;;;1640824;85;21560;-68
2022/09/02 10:04:14;;;;;;;5.60;3.10;;;;;;;;;;1626166;86;21036;-69
2022/09/02 10:06:41;;;;;;;9.20;3.95;;;;;;;;;;1644728;85;21144;-67
2022/09/02 10:09:15;;;;;;;5.40;3.08;;;;;;;;;;1638982;86;21052;-66
2022/09/02 10:11:55;;;;;;;5.47;3.17;;;;;;;;;;1635438;86;21084;-66
2022/09/02 10:14:22;;;;;;;4.72;3.22;;;;;;;;;;1641107;86;21068;-68
2022/09/02 10:16:53;;;;;;;9.68;3.10;;;;;;;;;;1652424;86;21069;-67
2022/09/02 10:19:25;;;;;;;4.95;2.80;;;;;;;;;;1644198;86;21064;-66
2022/09/02 10:22:11;;;;;;;5.12;3.10;;;;;;;;;;1640860;86;21616;-67
2022/09/02 10:24:42;;;;;;;5.85;3.08;;;;;;;;;;1637724;86;21144;-67
2022/09/02 10:27:10;;;;;;;5.30;3.47;;;;;;;;;;1637520;86;21527;-73
2022/09/02 10:29:47;;;;;;;5.72;3.20;;;;;;;;;;1640090;86;21603;-73
2022/09/02 10:32:32;;;;;;;6.78;3.30;;;;;;;;;;1638282;86;21080;-74
2022/09/02 10:35:16;;;;;;;6.08;3.20;;;;;;;;;;1636266;86;21071;-74
2022/09/02 10:38:02;;;;;;;5.10;3.40;;;;;;;;;;1637169;86;21947;-73
2022/09/02 10:40:37;;;;;;;8.50;3.40;;;;;;;;;;1636465;86;21136;-73
2022/09/02 10:43:04;;;;;;;45.33;35.25;;;;;;;;;;1634450;86;21088;-71
2022/09/02 10:45:35;;;;;;;37.53;26.62;;;;;;;;;;1629125;86;21116;-71
2022/09/02 10:48:21;;;;;;;23.10;14.75;;;;;;;;;;1596205;87;21107;-72
2022/09/02 10:50:52;;;;;;;7.92;4.35;;;;;;;;;;1630434;86;21129;-69
2022/09/02 10:53:28;;;;;;;5.50;3.70;;;;;;;;;;1628030;86;21128;-70
2022/09/02 10:56:02;;;;;;;12.10;3.42;;;;;;;;;;1632538;87;22209;-70
2022/09/02 10:58:30;;;;;;;8.13;4.40;;;;;;;;;;1627457;86;21095;-70
2022/09/02 11:00:57;;;;;;;8.20;4.15;;;;;;;;;;1627481;86;21124;-69
2022/09/02 11:03:28;;;;;;;9.35;4.92;;;;;;;;;;1629678;87;21068;-69
2022/09/02 11:05:56;;;;;;;8.15;4.47;;;;;;;;;;1629805;87;21572;-70
2022/09/02 11:08:40;;;;;;;8.43;4.80;;;;;;;;;;1626363;86;21112;-70
2022/09/02 11:11:06;;;;;;;;;;;;;;;;;;1626310;86;21064;-69
2022/09/02 11:13:34;;;;;;;9.20;5.92;;;;;;;;;;1649594;86;20111;-69
2022/09/02 11:16:11;;;;;;;7.97;4.90;;;;;;;;;;1635520;86;21092;-70
2022/09/02 11:18:42;;;;;;;8.25;5.10;;;;;;;;;;1608709;87;21048;-70
2022/09/02 11:21:10;;;;;;;9.93;5.62;;;;;;;;;;1602611;87;21688;-70
2022/09/02 11:23:39;;;;;;;10.03;6.08;;;;;;;;;;1610088;87;21572;-71
2022/09/02 11:26:14;;;;;;;8.45;5.53;;;;;;;;;;1606815;87;21099;-68
2022/09/02 11:28:52;;;;;;;10.08;6.12;;;;;;;;;;1605050;87;21071;-69
2022/09/02 11:31:26;;;;;;;10.40;6.00;;;;;;;;;;1606359;87;21400;-67
2022/09/02 11:34:12;;;;;;;10.08;6.58;;;;;;;;;;1606898;87;21124;-67
2022/09/02 11:36:40;;;;;;;12.43;6.42;;;;;;;;;;1605887;87;21644;-67
2022/09/02 11:39:08;;;;;;;12.43;6.08;;;;;;;;;;1616985;87;21303;-68
2022/09/02 11:41:36;;;;;;;11.95;6.42;;;;;;;;;;1620144;88;21053;-70
2022/09/02 11:44:12;;;;;;;9.88;5.97;;;;;;;;;;1619580;87;21139;-69
2022/09/02 11:46:59;;;;;;;10.43;6.28;;;;;;;;;;1619845;88;21118;-68
2022/09/02 11:49:42;;;;;;;10.75;6.53;;;;;;;;;;1617855;88;21131;-69
2022/09/02 11:52:27;;;;;;;9.93;6.80;;;;;;;;;;1619468;88;21091;-69
2022/09/02 11:55:10;;;;;;;9.85;6.12;;;;;;;;;;1618918;87;21063;-67
2022/09/02 11:57:40;;;;;;;11.12;6.97;;;;;;;;;;1619217;87;22189;-69
2022/09/02 12:00:07;;;;;;;12.40;7.03;;;;;;;;;;1619018;87;21116;-69
2022/09/02 12:02:47;;;;;;;22.48;7.92;;;;;;;;;;1614650;87;21631;-68
2022/09/02 12:05:30;;;;;;;14.80;7.35;;;;;;;;;;1620681;88;21623;-69
2022/09/02 12:07:58;;;;;;;10.48;6.87;;;;;;;;;;1616666;88;21103;-67
2022/09/02 12:10:42;;;;;;;12.73;7.28;;;;;;;;;;1620370;88;21067;-68
2022/09/02 12:13:08;;;;;;;;;;;;;;;;;;1610353;88;21694;-67
2022/09/02 12:15:34;;;;;;;9.33;6.45;;;;;;;;;;1620707;87;20180;-68
2022/09/02 12:18:10;;;;;;;13.20;6.72;;;;;;;;;;1640431;86;21120;-65
2022/09/02 12:20:40;;;;;;;12.37;7.25;;;;;;;;;;1639611;86;21033;-67
2022/09/02 12:23:06;;;;;;;13.45;6.67;;;;;;;;;;1639671;86;21088;-68
2022/09/02 12:25:39;;;;;;;11.10;5.87;;;;;;;;;;1637375;86;21077;-69
2022/09/02 12:28:10;;;;;;;10.78;6.75;;;;;;;;;;1627853;86;21088;-67
2022/09/02 12:31:08;;;;;;;10.85;6.40;;;;;;;;;;1638879;86;21693;-72
2022/09/02 12:33:34;;;;;;;12.30;7.20;;;;;;;;;;1639865;87;21390;-70
2022/09/02 12:36:03;;;;;;;14.45;7.78;;;;;;;;;;1623751;86;20992;-67
2022/09/02 12:38:29;;;;;;;11.43;7.42;;;;;;;;;;1639505;86;21306;-66
2022/09/02 12:41:02;;;;;;;21.57;7.90;;;;;;;;;;1632536;86;21121;-68
2022/09/02 12:43:40;;;;;;;12.73;6.90;;;;;;;;;;1639171;86;21106;-72
2022/09/02 12:46:08;;;;;;;12.78;7.15;;;;;;;;;;1616040;86;21132;-71
2022/09/02 12:48:39;;;;;;;12.30;8.00;;;;;;;;;;1639671;86;21130;-71
2022/09/02 12:51:05;;;;;;;14.55;7.80;;;;;;;;;;1636647;86;21024;-72
2022/09/02 12:53:34;;;;;;;12.40;7.35;;;;;;;;;;1638992;86;21559;-71
2022/09/02 12:56:05;;;;;;;10.23;6.40;;;;;;;;;;1639205;86;21054;-71
2022/09/02 12:58:39;;;;;;;8.53;5.87;;;;;;;;;;1642285;86;20992;-66
2022/09/02 13:01:15;;;;;;;11.05;6.83;;;;;;;;;;1640718;86;22217;-64
2022/09/02 13:03:43;;;;;;;12.37;6.90;;;;;;;;;;1650298;86;21081;-63
2022/09/02 13:06:28;;;;;;;12.10;6.50;;;;;;;;;;1650670;86;21559;-65
2022/09/02 13:08:59;;;;;;;10.10;5.83;;;;;;;;;;1642769;84;21053;-66
2022/09/02 13:11:27;;;;;;;8.48;5.35;;;;;;;;;;1638307;87;21060;-66
2022/09/02 13:13:57;;;;;;;7.60;5.37;;;;;;;;;;1640207;86;22282;-65
2022/09/02 13:16:31;;;;;;;7.60;5.25;;;;;;;;;;1634906;85;21119;-64
2022/09/02 13:19:05;;;;;;;8.50;5.35;;;;;;;;;;1617996;88;22372;-64
2022/09/02 13:21:50;;;;;;;8.40;5.00;;;;;;;;;;1589887;89;21150;-64
2022/09/02 13:24:18;;;;;;;10.03;5.50;;;;;;;;;;1627850;87;21074;-65
2022/09/02 13:27:02;;;;;;;10.05;5.87;;;;;;;;;;1580545;88;21107;-65
2022/09/02 13:29:40;;;;;;;9.43;5.72;;;;;;;;;;1597243;88;21177;-66
2022/09/02 13:32:11;;;;;;;8.05;5.10;;;;;;;;;;1621242;87;21107;-71
2022/09/02 13:34:43;;;;;;;8.88;5.35;;;;;;;;;;1616069;88;21088;-71
2022/09/02 13:37:29;;;;;;;7.97;5.33;;;;;;;;;;1620846;87;21051;-71
2022/09/02 13:39:56;;;;;;;11.53;5.15;;;;;;;;;;1622388;87;21096;-66
2022/09/02 13:42:22;;;;;;;10.90;4.78;;;;;;;;;;1627951;87;21547;-71
2022/09/02 13:44:49;;;;;;;7.58;4.62;;;;;;;;;;1627219;87;21123;-70
2022/09/02 13:47:16;;;;;;;9.35;5.28;;;;;;;;;;1624834;87;21096;-69
2022/09/02 13:49:44;;;;;;;8.85;5.15;;;;;;;;;;1618698;87;21536;-68
2022/09/02 13:52:11;;;;;;;7.47;4.60;;;;;;;;;;1619744;87;21064;-67
2022/09/02 13:54:38;;;;;;;13.30;5.10;;;;;;;;;;1618096;87;21071;-68
2022/09/02 13:57:05;;;;;;;9.00;4.83;;;;;;;;;;1618482;88;21116;-68
2022/09/02 13:59:33;;;;;;;8.30;4.85;;;;;;;;;;1619998;87;21547;-68
2022/09/02 14:02:01;;;;;;;7.90;5.03;;;;;;;;;;1624946;87;21076;-68
2022/09/02 14:04:27;;;;;;;8.35;5.15;;;;;;;;;;1620552;87;21178;-66
2022/09/02 14:06:54;;;;;;;10.50;5.40;;;;;;;;;;1621410;87;21127;-68
2022/09/02 14:09:21;;;;;;;9.88;5.30;;;;;;;;;;1617782;87;21097;-67
2022/09/02 14:11:48;;;;;;;8.25;5.22;;;;;;;;;;1618785;87;21129;-70
2022/09/02 14:14:14;;;;;;;8.35;5.00;;;;;;;;;;1611797;88;21504;-68
2022/09/02 14:16:41;;;;;;;7.37;4.30;;;;;;;;;;1633115;86;21119;-67
2022/09/02 14:19:15;;;;;;;8.38;4.97;;;;;;;;;;1640930;86;21124;-68
2022/09/02 14:21:48;;;;;;;8.05;5.37;;;;;;;;;;1666980;86;21051;-68
2022/09/02 14:24:14;;;;;;;;;;;;;;;;;;1648749;86;21534;-69
2022/09/02 14:26:41;;;;;;;6.47;4.12;;;;;;;;;;1641847;86;20384;-67
2022/09/02 14:29:07;;;;;;;4.90;3.47;;;;;;;;;;1640285;86;21120;-69
2022/09/02 14:31:36;;;;;;;7.45;4.30;;;;;;;;;;1617204;87;21068;-70
2022/09/02 14:34:03;;;;;;;8.95;4.60;;;;;;;;;;1641461;86;21166;-68
2022/09/02 14:36:36;;;;;;;8.23;5.25;;;;;;;;;;1639676;86;21532;-69
2022/09/02 14:39:10;;;;;;;10.20;5.95;;;;;;;;;;1638958;86;21025;-68
2022/09/02 14:41:38;;;;;;;12.35;6.67;;;;;;;;;;1625654;86;21076;-69
2022/09/02 14:44:10;;;;;;;11.18;7.53;;;;;;;;;;1642603;86;21053;-69
2022/09/02 14:46:40;;;;;;;13.62;7.20;;;;;;;;;;1641666;85;22125;-69
2022/09/02 14:49:07;;;;;;;11.85;6.87;;;;;;;;;;1643366;86;21057;-69
2022/09/02 14:51:38;;;;;;;15.38;7.78;;;;;;;;;;1635148;86;21084;-69